This is the latest recevied weather packets stored in our database for station/object KI5RAB. If no packets are shown the sender has not sent any weather packets the latest 10 day(s).
| Time | Temp. | Humidity | Pressure | Rain* | Wind** | Luminosity | Snow |
|---|---|---|---|---|---|---|---|
| 1788107542 | 31.67° C | 63% | 1020.8 hPa | 0 mm | - | 659 W/m² | - |
| 1788107236 | 31.67° C | 64% | 1020.5 hPa | 0 mm | - | 622 W/m² | - |
| 1788106932 | 32.22° C | 63% | 1020.8 hPa | 0 mm | - | 609 W/m² | - |
| 1788106627 | 31.67° C | 67% | 1020.7 hPa | 0 mm | - | 600 W/m² | - |
| 1788106321 | 31.11° C | 68% | 1020.9 hPa | 0 mm | - | 389 W/m² | - |
| 1788106017 | 31.11° C | 68% | 1020.7 hPa | 0 mm | - | 588 W/m² | - |
| 1788105716 | 30° C | 71% | 1020.8 hPa | 0 mm | - | 571 W/m² | - |
| 1788105413 | 30° C | 72% | 1021 hPa | 0 mm | - | 560 W/m² | - |
| 1788105109 | 29.44° C | 74% | 1021.1 hPa | 0 mm | - | 549 W/m² | - |
| 1788104804 | 28.89° C | 75% | 1020.9 hPa | 0 mm | - | 548 W/m² | - |
| 1788104500 | 28.89° C | 76% | 1021 hPa | 0 mm | - | 542 W/m² | - |
| 1788104197 | 28.89° C | 77% | 1021.1 hPa | 0 mm | - | 537 W/m² | - |
| 1788103897 | 28.89° C | 77% | 1021 hPa | 0 mm | - | 122 W/m² | - |
| 1788103595 | 29.44° C | 75% | 1020.8 hPa | 0 mm | - | 486 W/m² | - |
| 1788103294 | 30° C | 75% | 1020.7 hPa | 0 mm | - | 151 W/m² | - |
| 1788103000 | 29.44° C | 76% | 1020.8 hPa | 0 mm | - | 446 W/m² | - |
| 1788102684 | 28.33° C | 79% | 1020.8 hPa | 0 mm | - | 432 W/m² | - |
| 1788102384 | 28.33° C | 80% | 1020.8 hPa | 0 mm | - | 108 W/m² | - |
| 1788102079 | 27.22° C | 83% | 1021 hPa | 0 mm | - | 78 W/m² | - |
| 1788101773 | 27.22° C | 83% | 1020.8 hPa | 0 mm | - | 104 W/m² | - |
| 1788101468 | 27.22° C | 84% | 1020.9 hPa | 0 mm | - | 126 W/m² | - |
| 1788101164 | 27.78° C | 83% | 1020.8 hPa | 0 mm | - | 68 W/m² | - |
| 1788100860 | 28.33° C | 82% | 1021 hPa | 0 mm | - | 82 W/m² | - |
| 1788100555 | 27.78° C | 82% | 1020.7 hPa | 0 mm | - | 347 W/m² | - |
| 1788100253 | 27.78° C | 83% | 1020.6 hPa | 0 mm | - | 250 W/m² | - |
* Rain latest hour (hover to see other rain measurements)
** Current wind speed in m/s (hover to see current wind gust speed)